Weather Data

Pearl Creek Farm: 8878 N Farm Road 75, Walnut Grove MO 65770

<== Previous Day (Monday 18 Apr 2016) | Next Day (Wednesday 20 Apr 2016) ==>

Summary Precipitation Data For Tuesday 19 April 2016

ElementValueUnits
Precipitation0.1"
Notes(none)
SourcePearl Creek Farm

Summary Temperature Data For Tuesday 19 April 2016

ElementValueUnits
High Temperature70 oF
Low Temperature55 oF
Average Temperature63 oF
High Humidity93 %
Low Humidity61 %
Average Humidity76 %
SourceSpringfield-Branson National Airport (SGF)

Detail Temperature Data For Tuesday 19 April 2016

Date / TimeTemp (F)RH (%)Dew Pt (F)Report Date / TimeSource
2016-04-19 05:47:00 55 93 53.0 2017-12-29 17:00:26.17417 Springfield-Branson National Airport (SGF)
2016-04-19 06:52:00 58 93 56.0 2017-12-29 17:00:26.17417 Springfield-Branson National Airport (SGF)
2016-04-19 00:52:00 61 84 56.0 2017-12-29 17:00:26.17417 Springfield-Branson National Airport (SGF)
2016-04-19 01:52:00 60 86 56.0 2017-12-29 17:00:26.17417 Springfield-Branson National Airport (SGF)
2016-04-19 02:52:00 59 90 56.0 2017-12-29 17:00:26.17417 Springfield-Branson National Airport (SGF)
2016-04-19 03:52:00 58 90 55.0 2017-12-29 17:00:26.17417 Springfield-Branson National Airport (SGF)
2016-04-19 04:52:00 56 93 54.0 2017-12-29 17:00:26.17417 Springfield-Branson National Airport (SGF)
2016-04-19 07:52:00 62 86 58.0 2017-12-29 17:00:26.17417 Springfield-Branson National Airport (SGF)
2016-04-19 08:52:00 66 73 57.0 2017-12-29 17:00:26.17417 Springfield-Branson National Airport (SGF)
2016-04-19 09:52:00 68 65 56.0 2017-12-29 17:00:26.17417 Springfield-Branson National Airport (SGF)
2016-04-19 10:52:00 69 63 56.0 2017-12-29 17:00:26.17417 Springfield-Branson National Airport (SGF)
2016-04-19 11:52:00 68 65 56.0 2017-12-29 17:00:26.17417 Springfield-Branson National Airport (SGF)
2016-04-19 12:52:00 69 63 56.0 2017-12-29 17:00:26.17417 Springfield-Branson National Airport (SGF)
2016-04-19 13:52:00 70 61 56.0 2017-12-29 17:00:26.17417 Springfield-Branson National Airport (SGF)
2016-04-19 14:52:00 69 63 56.0 2017-12-29 17:00:26.17417 Springfield-Branson National Airport (SGF)
2016-04-19 15:52:00 68 65 56.0 2017-12-29 17:00:26.17417 Springfield-Branson National Airport (SGF)
2016-04-19 16:52:00 67 66 55.0 2017-12-29 17:00:26.17417 Springfield-Branson National Airport (SGF)
2016-04-19 17:52:00 64 73 55.0 2017-12-29 17:00:26.17417 Springfield-Branson National Airport (SGF)
2016-04-19 18:52:00 64 73 55.0 2017-12-29 17:00:26.17417 Springfield-Branson National Airport (SGF)
2016-04-19 19:52:00 63 75 55.0 2017-12-29 17:00:26.17417 Springfield-Branson National Airport (SGF)
2016-04-19 20:52:00 63 73 54.0 2017-12-29 17:00:26.17417 Springfield-Branson National Airport (SGF)
2016-04-19 21:52:00 62 78 55.0 2017-12-29 17:00:26.17417 Springfield-Branson National Airport (SGF)
2016-04-19 22:52:00 61 75 53.0 2017-12-29 17:00:26.17417 Springfield-Branson National Airport (SGF)
2016-04-19 23:52:00 60 80 54.0 2017-12-29 17:00:26.17417 Springfield-Branson National Airport (SGF)

A total of 24 rows are displayed.